sensor_id;sensor_type;location;lat;lon;timestamp;P1;durP1;ratioP1;P2;durP2;ratioP2
10715;SDS011;5409;42.620;23.316;2023-04-08T00:00:26;5.22;;;4.72;;
10715;SDS011;5409;42.620;23.316;2023-04-08T00:02:53;9.30;;;8.20;;
10715;SDS011;5409;42.620;23.316;2023-04-08T00:05:19;7.13;;;4.93;;
10715;SDS011;5409;42.620;23.316;2023-04-08T00:07:47;5.93;;;5.10;;
10715;SDS011;5409;42.620;23.316;2023-04-08T00:10:14;5.68;;;4.50;;
10715;SDS011;5409;42.620;23.316;2023-04-08T00:12:42;5.16;;;4.40;;
10715;SDS011;5409;42.620;23.316;2023-04-08T00:15:09;5.18;;;4.15;;
10715;SDS011;5409;42.620;23.316;2023-04-08T00:17:35;7.45;;;4.65;;
10715;SDS011;5409;42.620;23.316;2023-04-08T00:20:02;4.88;;;4.38;;
10715;SDS011;5409;42.620;23.316;2023-04-08T00:22:29;5.05;;;4.38;;
10715;SDS011;5409;42.620;23.316;2023-04-08T00:24:58;5.93;;;4.05;;
10715;SDS011;5409;42.620;23.316;2023-04-08T00:27:24;5.65;;;4.47;;
10715;SDS011;5409;42.620;23.316;2023-04-08T00:29:51;7.35;;;6.45;;
10715;SDS011;5409;42.620;23.316;2023-04-08T00:32:18;7.70;;;6.43;;
10715;SDS011;5409;42.620;23.316;2023-04-08T00:34:45;8.48;;;6.10;;
10715;SDS011;5409;42.620;23.316;2023-04-08T00:37:12;6.70;;;5.85;;
10715;SDS011;5409;42.620;23.316;2023-04-08T00:39:39;6.65;;;5.28;;
10715;SDS011;5409;42.620;23.316;2023-04-08T00:42:07;10.32;;;7.30;;
10715;SDS011;5409;42.620;23.316;2023-04-08T00:44:34;7.50;;;6.35;;
10715;SDS011;5409;42.620;23.316;2023-04-08T00:47:00;9.05;;;7.15;;
10715;SDS011;5409;42.620;23.316;2023-04-08T00:49:29;10.55;;;8.15;;
10715;SDS011;5409;42.620;23.316;2023-04-08T00:51:56;10.00;;;7.15;;
10715;SDS011;5409;42.620;23.316;2023-04-08T00:54:24;9.05;;;6.90;;
10715;SDS011;5409;42.620;23.316;2023-04-08T00:56:50;8.20;;;6.80;;
10715;SDS011;5409;42.620;23.316;2023-04-08T00:59:19;9.70;;;7.70;;
10715;SDS011;5409;42.620;23.316;2023-04-08T01:01:48;9.32;;;7.70;;
10715;SDS011;5409;42.620;23.316;2023-04-08T01:04:21;8.02;;;6.63;;
10715;SDS011;5409;42.620;23.316;2023-04-08T01:06:55;8.98;;;6.85;;
10715;SDS011;5409;42.620;23.316;2023-04-08T01:09:27;7.75;;;6.90;;
10715;SDS011;5409;42.620;23.316;2023-04-08T01:11:57;7.45;;;6.60;;
10715;SDS011;5409;42.620;23.316;2023-04-08T01:14:30;8.15;;;6.72;;
10715;SDS011;5409;42.620;23.316;2023-04-08T01:17:00;8.38;;;6.75;;
10715;SDS011;5409;42.620;23.316;2023-04-08T01:19:28;6.70;;;6.05;;
10715;SDS011;5409;42.620;23.316;2023-04-08T01:21:59;9.25;;;6.32;;
10715;SDS011;5409;42.620;23.316;2023-04-08T01:24:32;8.75;;;6.85;;
10715;SDS011;5409;42.620;23.316;2023-04-08T01:27:07;7.82;;;6.45;;
10715;SDS011;5409;42.620;23.316;2023-04-08T01:29:35;9.35;;;6.15;;
10715;SDS011;5409;42.620;23.316;2023-04-08T01:32:03;10.15;;;6.63;;
10715;SDS011;5409;42.620;23.316;2023-04-08T01:34:33;6.30;;;5.70;;
10715;SDS011;5409;42.620;23.316;2023-04-08T01:37:01;7.90;;;5.93;;
10715;SDS011;5409;42.620;23.316;2023-04-08T01:39:29;6.80;;;5.45;;
10715;SDS011;5409;42.620;23.316;2023-04-08T01:41:57;8.05;;;5.60;;
10715;SDS011;5409;42.620;23.316;2023-04-08T01:44:27;6.05;;;5.20;;
10715;SDS011;5409;42.620;23.316;2023-04-08T01:46:57;6.63;;;5.65;;
10715;SDS011;5409;42.620;23.316;2023-04-08T01:49:24;7.72;;;5.82;;
10715;SDS011;5409;42.620;23.316;2023-04-08T01:51:52;8.63;;;5.93;;
10715;SDS011;5409;42.620;23.316;2023-04-08T01:54:20;5.28;;;4.78;;
10715;SDS011;5409;42.620;23.316;2023-04-08T01:56:47;5.57;;;5.00;;
10715;SDS011;5409;42.620;23.316;2023-04-08T01:59:16;6.68;;;5.22;;
10715;SDS011;5409;42.620;23.316;2023-04-08T02:01:47;5.57;;;5.03;;
10715;SDS011;5409;42.620;23.316;2023-04-08T02:04:16;7.15;;;5.38;;
10715;SDS011;5409;42.620;23.316;2023-04-08T02:06:42;8.07;;;6.53;;
10715;SDS011;5409;42.620;23.316;2023-04-08T02:09:10;6.85;;;5.40;;
10715;SDS011;5409;42.620;23.316;2023-04-08T02:11:36;5.10;;;4.43;;
10715;SDS011;5409;42.620;23.316;2023-04-08T02:14:03;5.93;;;4.78;;
10715;SDS011;5409;42.620;23.316;2023-04-08T02:16:36;5.68;;;5.13;;
10715;SDS011;5409;42.620;23.316;2023-04-08T02:19:10;5.50;;;4.50;;
10715;SDS011;5409;42.620;23.316;2023-04-08T02:21:42;7.30;;;5.10;;
10715;SDS011;5409;42.620;23.316;2023-04-08T02:24:12;5.47;;;4.57;;
10715;SDS011;5409;42.620;23.316;2023-04-08T02:26:41;6.13;;;5.00;;
10715;SDS011;5409;42.620;23.316;2023-04-08T02:29:11;5.15;;;4.65;;
10715;SDS011;5409;42.620;23.316;2023-04-08T02:31:41;6.15;;;5.13;;
10715;SDS011;5409;42.620;23.316;2023-04-08T02:34:10;7.47;;;5.75;;
10715;SDS011;5409;42.620;23.316;2023-04-08T02:36:40;10.32;;;7.82;;
10715;SDS011;5409;42.620;23.316;2023-04-08T02:39:10;11.90;;;8.93;;
10715;SDS011;5409;42.620;23.316;2023-04-08T02:41:36;9.35;;;7.97;;
10715;SDS011;5409;42.620;23.316;2023-04-08T02:44:03;10.02;;;7.35;;
10715;SDS011;5409;42.620;23.316;2023-04-08T02:46:30;10.80;;;8.02;;
10715;SDS011;5409;42.620;23.316;2023-04-08T02:48:57;10.27;;;7.80;;
10715;SDS011;5409;42.620;23.316;2023-04-08T02:51:25;9.65;;;8.00;;
10715;SDS011;5409;42.620;23.316;2023-04-08T02:53:53;10.05;;;7.47;;
10715;SDS011;5409;42.620;23.316;2023-04-08T02:56:19;8.43;;;7.20;;
10715;SDS011;5409;42.620;23.316;2023-04-08T02:58:46;8.13;;;6.80;;
10715;SDS011;5409;42.620;23.316;2023-04-08T03:01:13;8.25;;;6.93;;
10715;SDS011;5409;42.620;23.316;2023-04-08T03:03:40;9.75;;;7.70;;
10715;SDS011;5409;42.620;23.316;2023-04-08T03:06:07;8.57;;;7.70;;
10715;SDS011;5409;42.620;23.316;2023-04-08T03:08:35;9.13;;;6.63;;
10715;SDS011;5409;42.620;23.316;2023-04-08T03:11:02;6.70;;;6.00;;
10715;SDS011;5409;42.620;23.316;2023-04-08T03:13:28;6.53;;;5.72;;
10715;SDS011;5409;42.620;23.316;2023-04-08T03:15:55;9.48;;;6.72;;
10715;SDS011;5409;42.620;23.316;2023-04-08T03:18:23;9.50;;;7.25;;
10715;SDS011;5409;42.620;23.316;2023-04-08T03:20:50;8.45;;;6.55;;
10715;SDS011;5409;42.620;23.316;2023-04-08T03:23:17;7.25;;;6.05;;
10715;SDS011;5409;42.620;23.316;2023-04-08T03:25:45;7.32;;;5.88;;
10715;SDS011;5409;42.620;23.316;2023-04-08T03:28:12;7.68;;;6.25;;
10715;SDS011;5409;42.620;23.316;2023-04-08T03:30:38;7.53;;;6.10;;
10715;SDS011;5409;42.620;23.316;2023-04-08T03:33:05;7.03;;;6.03;;
10715;SDS011;5409;42.620;23.316;2023-04-08T03:35:32;6.40;;;5.72;;
10715;SDS011;5409;42.620;23.316;2023-04-08T03:37:59;6.47;;;5.82;;
10715;SDS011;5409;42.620;23.316;2023-04-08T03:40:26;10.30;;;7.40;;
10715;SDS011;5409;42.620;23.316;2023-04-08T03:42:54;6.85;;;6.15;;
10715;SDS011;5409;42.620;23.316;2023-04-08T03:45:21;8.00;;;6.80;;
10715;SDS011;5409;42.620;23.316;2023-04-08T03:47:47;7.63;;;6.78;;
10715;SDS011;5409;42.620;23.316;2023-04-08T03:50:14;8.85;;;6.13;;
10715;SDS011;5409;42.620;23.316;2023-04-08T03:52:41;11.30;;;7.63;;
10715;SDS011;5409;42.620;23.316;2023-04-08T03:55:08;13.55;;;7.93;;
10715;SDS011;5409;42.620;23.316;2023-04-08T03:57:34;10.95;;;8.43;;
10715;SDS011;5409;42.620;23.316;2023-04-08T04:00:03;11.73;;;8.10;;
10715;SDS011;5409;42.620;23.316;2023-04-08T04:02:30;11.30;;;8.70;;
10715;SDS011;5409;42.620;23.316;2023-04-08T04:04:57;10.82;;;7.38;;
10715;SDS011;5409;42.620;23.316;2023-04-08T04:07:24;9.48;;;7.25;;
10715;SDS011;5409;42.620;23.316;2023-04-08T04:09:51;8.25;;;7.40;;
10715;SDS011;5409;42.620;23.316;2023-04-08T04:12:20;10.32;;;8.02;;
10715;SDS011;5409;42.620;23.316;2023-04-08T04:14:48;10.20;;;7.15;;
10715;SDS011;5409;42.620;23.316;2023-04-08T04:17:17;8.35;;;6.32;;
10715;SDS011;5409;42.620;23.316;2023-04-08T04:19:43;7.65;;;6.50;;
10715;SDS011;5409;42.620;23.316;2023-04-08T04:22:10;10.40;;;7.78;;
10715;SDS011;5409;42.620;23.316;2023-04-08T04:24:37;11.18;;;7.97;;
10715;SDS011;5409;42.620;23.316;2023-04-08T04:27:03;8.18;;;6.45;;
10715;SDS011;5409;42.620;23.316;2023-04-08T04:29:31;9.57;;;7.20;;
10715;SDS011;5409;42.620;23.316;2023-04-08T04:32:00;9.15;;;6.25;;
10715;SDS011;5409;42.620;23.316;2023-04-08T04:34:28;8.77;;;6.75;;
10715;SDS011;5409;42.620;23.316;2023-04-08T04:36:55;7.32;;;6.05;;
10715;SDS011;5409;42.620;23.316;2023-04-08T04:39:22;8.32;;;6.38;;
10715;SDS011;5409;42.620;23.316;2023-04-08T04:41:48;10.40;;;6.40;;
10715;SDS011;5409;42.620;23.316;2023-04-08T04:44:15;7.75;;;6.28;;
10715;SDS011;5409;42.620;23.316;2023-04-08T04:46:42;9.57;;;6.25;;
10715;SDS011;5409;42.620;23.316;2023-04-08T04:49:09;8.23;;;6.03;;
10715;SDS011;5409;42.620;23.316;2023-04-08T04:51:37;8.00;;;6.35;;
10715;SDS011;5409;42.620;23.316;2023-04-08T04:54:03;7.63;;;5.82;;
10715;SDS011;5409;42.620;23.316;2023-04-08T04:56:30;8.57;;;6.10;;
10715;SDS011;5409;42.620;23.316;2023-04-08T04:58:57;8.73;;;6.68;;
10715;SDS011;5409;42.620;23.316;2023-04-08T05:01:24;7.70;;;6.45;;
10715;SDS011;5409;42.620;23.316;2023-04-08T05:03:50;11.52;;;7.38;;
10715;SDS011;5409;42.620;23.316;2023-04-08T05:06:17;10.38;;;7.85;;
10715;SDS011;5409;42.620;23.316;2023-04-08T05:08:45;9.90;;;8.68;;
10715;SDS011;5409;42.620;23.316;2023-04-08T05:11:12;17.33;;;12.23;;
10715;SDS011;5409;42.620;23.316;2023-04-08T05:13:38;19.15;;;12.77;;
10715;SDS011;5409;42.620;23.316;2023-04-08T05:16:05;25.02;;;14.88;;
10715;SDS011;5409;42.620;23.316;2023-04-08T05:18:32;23.92;;;14.63;;
10715;SDS011;5409;42.620;23.316;2023-04-08T05:20:59;20.92;;;14.23;;
10715;SDS011;5409;42.620;23.316;2023-04-08T05:23:26;17.20;;;13.65;;
10715;SDS011;5409;42.620;23.316;2023-04-08T05:25:54;15.82;;;11.80;;
10715;SDS011;5409;42.620;23.316;2023-04-08T05:28:21;14.65;;;11.18;;
10715;SDS011;5409;42.620;23.316;2023-04-08T05:30:48;14.43;;;10.32;;
10715;SDS011;5409;42.620;23.316;2023-04-08T05:33:18;12.63;;;10.50;;
10715;SDS011;5409;42.620;23.316;2023-04-08T05:35:45;15.15;;;10.25;;
10715;SDS011;5409;42.620;23.316;2023-04-08T05:38:12;14.68;;;10.75;;
10715;SDS011;5409;42.620;23.316;2023-04-08T05:40:39;17.20;;;10.43;;
10715;SDS011;5409;42.620;23.316;2023-04-08T05:43:07;14.00;;;9.93;;
10715;SDS011;5409;42.620;23.316;2023-04-08T05:45:33;14.43;;;9.85;;
10715;SDS011;5409;42.620;23.316;2023-04-08T05:48:00;13.73;;;10.90;;
10715;SDS011;5409;42.620;23.316;2023-04-08T05:50:27;18.48;;;13.85;;
10715;SDS011;5409;42.620;23.316;2023-04-08T05:52:53;25.33;;;17.65;;
10715;SDS011;5409;42.620;23.316;2023-04-08T05:55:20;28.10;;;19.65;;
10715;SDS011;5409;42.620;23.316;2023-04-08T05:57:47;26.48;;;16.23;;
10715;SDS011;5409;42.620;23.316;2023-04-08T06:00:16;19.50;;;15.68;;
10715;SDS011;5409;42.620;23.316;2023-04-08T06:02:44;18.88;;;14.70;;
10715;SDS011;5409;42.620;23.316;2023-04-08T06:05:10;20.20;;;14.80;;
10715;SDS011;5409;42.620;23.316;2023-04-08T06:07:37;23.65;;;15.00;;
10715;SDS011;5409;42.620;23.316;2023-04-08T06:10:04;25.00;;;15.07;;
10715;SDS011;5409;42.620;23.316;2023-04-08T06:12:33;20.45;;;14.43;;
10715;SDS011;5409;42.620;23.316;2023-04-08T06:15:00;18.55;;;14.32;;
10715;SDS011;5409;42.620;23.316;2023-04-08T06:17:29;19.23;;;13.73;;
10715;SDS011;5409;42.620;23.316;2023-04-08T06:19:56;21.77;;;15.55;;
10715;SDS011;5409;42.620;23.316;2023-04-08T06:22:23;27.10;;;16.08;;
10715;SDS011;5409;42.620;23.316;2023-04-08T06:24:50;21.40;;;15.35;;
10715;SDS011;5409;42.620;23.316;2023-04-08T06:27:16;25.10;;;16.67;;
10715;SDS011;5409;42.620;23.316;2023-04-08T06:29:46;30.25;;;15.68;;
10715;SDS011;5409;42.620;23.316;2023-04-08T06:32:13;14.88;;;12.38;;
10715;SDS011;5409;42.620;23.316;2023-04-08T06:34:41;15.93;;;12.85;;
10715;SDS011;5409;42.620;23.316;2023-04-08T06:37:10;16.80;;;13.05;;
10715;SDS011;5409;42.620;23.316;2023-04-08T06:39:37;15.73;;;14.02;;
10715;SDS011;5409;42.620;23.316;2023-04-08T06:42:03;17.25;;;12.68;;
10715;SDS011;5409;42.620;23.316;2023-04-08T06:44:30;15.98;;;11.98;;
10715;SDS011;5409;42.620;23.316;2023-04-08T06:46:57;20.85;;;12.43;;
10715;SDS011;5409;42.620;23.316;2023-04-08T06:49:23;16.88;;;12.80;;
10715;SDS011;5409;42.620;23.316;2023-04-08T06:51:52;17.55;;;12.32;;
10715;SDS011;5409;42.620;23.316;2023-04-08T06:54:19;15.23;;;12.13;;
10715;SDS011;5409;42.620;23.316;2023-04-08T06:56:46;18.48;;;13.23;;
10715;SDS011;5409;42.620;23.316;2023-04-08T06:59:12;19.13;;;12.63;;
10715;SDS011;5409;42.620;23.316;2023-04-08T07:01:39;15.15;;;12.65;;
10715;SDS011;5409;42.620;23.316;2023-04-08T07:04:06;13.05;;;10.82;;
10715;SDS011;5409;42.620;23.316;2023-04-08T07:06:33;17.08;;;11.48;;
10715;SDS011;5409;42.620;23.316;2023-04-08T07:09:01;14.38;;;11.23;;
10715;SDS011;5409;42.620;23.316;2023-04-08T07:11:28;13.77;;;11.57;;
10715;SDS011;5409;42.620;23.316;2023-04-08T07:13:55;14.55;;;11.38;;
10715;SDS011;5409;42.620;23.316;2023-04-08T07:16:22;15.75;;;12.13;;
10715;SDS011;5409;42.620;23.316;2023-04-08T07:18:48;17.30;;;13.15;;
10715;SDS011;5409;42.620;23.316;2023-04-08T07:21:15;15.02;;;11.85;;
10715;SDS011;5409;42.620;23.316;2023-04-08T07:23:42;17.35;;;11.93;;
10715;SDS011;5409;42.620;23.316;2023-04-08T07:26:10;15.05;;;11.63;;
10715;SDS011;5409;42.620;23.316;2023-04-08T07:28:37;14.25;;;11.32;;
10715;SDS011;5409;42.620;23.316;2023-04-08T07:31:10;14.55;;;11.73;;
10715;SDS011;5409;42.620;23.316;2023-04-08T07:33:38;15.32;;;12.55;;
10715;SDS011;5409;42.620;23.316;2023-04-08T07:36:05;20.13;;;13.52;;
10715;SDS011;5409;42.620;23.316;2023-04-08T07:38:31;19.45;;;12.10;;
10715;SDS011;5409;42.620;23.316;2023-04-08T07:40:58;16.73;;;12.00;;
10715;SDS011;5409;42.620;23.316;2023-04-08T07:43:26;18.52;;;12.95;;
10715;SDS011;5409;42.620;23.316;2023-04-08T07:45:56;15.13;;;12.07;;
10715;SDS011;5409;42.620;23.316;2023-04-08T07:48:27;18.00;;;12.20;;
10715;SDS011;5409;42.620;23.316;2023-04-08T07:50:53;13.30;;;10.88;;
10715;SDS011;5409;42.620;23.316;2023-04-08T07:53:20;13.20;;;9.88;;
10715;SDS011;5409;42.620;23.316;2023-04-08T07:55:47;11.85;;;10.10;;
10715;SDS011;5409;42.620;23.316;2023-04-08T07:58:14;14.20;;;10.68;;
10715;SDS011;5409;42.620;23.316;2023-04-08T08:00:42;13.10;;;10.02;;
10715;SDS011;5409;42.620;23.316;2023-04-08T08:03:09;13.30;;;10.18;;
10715;SDS011;5409;42.620;23.316;2023-04-08T08:05:35;11.50;;;9.57;;
10715;SDS011;5409;42.620;23.316;2023-04-08T08:08:02;13.52;;;9.93;;
10715;SDS011;5409;42.620;23.316;2023-04-08T08:10:31;15.05;;;9.55;;
10715;SDS011;5409;42.620;23.316;2023-04-08T08:12:58;15.10;;;10.20;;
10715;SDS011;5409;42.620;23.316;2023-04-08T08:15:25;12.85;;;9.88;;
10715;SDS011;5409;42.620;23.316;2023-04-08T08:17:53;15.38;;;10.18;;
10715;SDS011;5409;42.620;23.316;2023-04-08T08:20:19;11.63;;;9.80;;
10715;SDS011;5409;42.620;23.316;2023-04-08T08:22:46;12.25;;;9.40;;
10715;SDS011;5409;42.620;23.316;2023-04-08T08:25:13;12.70;;;10.23;;
10715;SDS011;5409;42.620;23.316;2023-04-08T08:27:40;12.38;;;10.43;;
10715;SDS011;5409;42.620;23.316;2023-04-08T08:30:07;12.07;;;9.93;;
10715;SDS011;5409;42.620;23.316;2023-04-08T08:32:34;17.20;;;11.40;;
10715;SDS011;5409;42.620;23.316;2023-04-08T08:35:03;13.68;;;10.90;;
10715;SDS011;5409;42.620;23.316;2023-04-08T08:37:30;14.43;;;11.65;;
10715;SDS011;5409;42.620;23.316;2023-04-08T08:39:56;19.15;;;11.10;;
10715;SDS011;5409;42.620;23.316;2023-04-08T08:42:24;15.00;;;12.45;;
10715;SDS011;5409;42.620;23.316;2023-04-08T08:44:51;15.20;;;11.68;;
10715;SDS011;5409;42.620;23.316;2023-04-08T08:47:18;13.90;;;11.60;;
10715;SDS011;5409;42.620;23.316;2023-04-08T08:49:44;13.65;;;11.57;;
10715;SDS011;5409;42.620;23.316;2023-04-08T08:52:15;13.93;;;10.82;;
10715;SDS011;5409;42.620;23.316;2023-04-08T08:54:43;11.95;;;10.25;;
10715;SDS011;5409;42.620;23.316;2023-04-08T08:57:16;15.27;;;10.07;;
10715;SDS011;5409;42.620;23.316;2023-04-08T08:59:44;13.85;;;11.05;;
10715;SDS011;5409;42.620;23.316;2023-04-08T09:02:22;13.25;;;11.48;;
10715;SDS011;5409;42.620;23.316;2023-04-08T09:04:55;13.82;;;11.05;;
10715;SDS011;5409;42.620;23.316;2023-04-08T09:07:25;13.50;;;10.93;;
10715;SDS011;5409;42.620;23.316;2023-04-08T09:09:53;14.35;;;11.05;;
10715;SDS011;5409;42.620;23.316;2023-04-08T09:12:20;11.57;;;10.13;;
10715;SDS011;5409;42.620;23.316;2023-04-08T09:14:48;15.48;;;10.52;;
10715;SDS011;5409;42.620;23.316;2023-04-08T09:17:15;13.50;;;10.10;;
10715;SDS011;5409;42.620;23.316;2023-04-08T09:20:02;13.43;;;10.52;;
10715;SDS011;5409;42.620;23.316;2023-04-08T09:22:35;17.40;;;10.38;;
10715;SDS011;5409;42.620;23.316;2023-04-08T09:25:24;13.05;;;9.80;;
10715;SDS011;5409;42.620;23.316;2023-04-08T09:27:51;13.02;;;9.82;;
10715;SDS011;5409;42.620;23.316;2023-04-08T09:30:19;11.55;;;8.85;;
10715;SDS011;5409;42.620;23.316;2023-04-08T09:32:47;10.60;;;8.85;;
10715;SDS011;5409;42.620;23.316;2023-04-08T09:35:15;11.90;;;8.10;;
10715;SDS011;5409;42.620;23.316;2023-04-08T09:37:44;9.13;;;6.65;;
10715;SDS011;5409;42.620;23.316;2023-04-08T09:40:12;9.70;;;6.85;;
10715;SDS011;5409;42.620;23.316;2023-04-08T09:42:40;8.57;;;7.32;;
10715;SDS011;5409;42.620;23.316;2023-04-08T09:45:12;11.40;;;8.07;;
10715;SDS011;5409;42.620;23.316;2023-04-08T09:47:49;9.55;;;8.60;;
10715;SDS011;5409;42.620;23.316;2023-04-08T09:50:22;11.43;;;9.02;;
10715;SDS011;5409;42.620;23.316;2023-04-08T09:52:55;11.93;;;9.52;;
10715;SDS011;5409;42.620;23.316;2023-04-08T09:55:26;13.75;;;9.80;;
10715;SDS011;5409;42.620;23.316;2023-04-08T09:57:57;13.27;;;10.95;;
10715;SDS011;5409;42.620;23.316;2023-04-08T10:00:27;13.65;;;10.35;;
10715;SDS011;5409;42.620;23.316;2023-04-08T10:02:59;13.85;;;10.25;;
10715;SDS011;5409;42.620;23.316;2023-04-08T10:05:32;16.77;;;11.40;;
10715;SDS011;5409;42.620;23.316;2023-04-08T10:08:04;14.85;;;10.85;;
10715;SDS011;5409;42.620;23.316;2023-04-08T10:10:32;13.55;;;10.95;;
10715;SDS011;5409;42.620;23.316;2023-04-08T10:13:01;14.93;;;11.90;;
10715;SDS011;5409;42.620;23.316;2023-04-08T10:15:28;16.67;;;12.07;;
10715;SDS011;5409;42.620;23.316;2023-04-08T10:20:56;14.77;;;11.77;;
10715;SDS011;5409;42.620;23.316;2023-04-08T10:26:30;14.18;;;11.88;;
10715;SDS011;5409;42.620;23.316;2023-04-08T10:31:57;27.90;;;15.88;;
10715;SDS011;5409;42.620;23.316;2023-04-08T10:34:24;17.10;;;13.27;;
10715;SDS011;5409;42.620;23.316;2023-04-08T10:36:52;18.48;;;13.35;;
10715;SDS011;5409;42.620;23.316;2023-04-08T10:39:23;19.08;;;14.13;;
10715;SDS011;5409;42.620;23.316;2023-04-08T10:41:50;18.98;;;13.98;;
10715;SDS011;5409;42.620;23.316;2023-04-08T10:44:17;22.73;;;15.07;;
10715;SDS011;5409;42.620;23.316;2023-04-08T10:46:45;18.73;;;13.82;;
10715;SDS011;5409;42.620;23.316;2023-04-08T10:49:13;17.00;;;12.73;;
10715;SDS011;5409;42.620;23.316;2023-04-08T10:51:40;18.48;;;14.18;;
10715;SDS011;5409;42.620;23.316;2023-04-08T10:54:09;15.77;;;12.40;;
10715;SDS011;5409;42.620;23.316;2023-04-08T10:56:43;16.90;;;12.48;;
10715;SDS011;5409;42.620;23.316;2023-04-08T10:59:12;18.92;;;13.75;;
10715;SDS011;5409;42.620;23.316;2023-04-08T11:01:41;22.63;;;13.25;;
10715;SDS011;5409;42.620;23.316;2023-04-08T11:04:15;17.80;;;12.25;;
10715;SDS011;5409;42.620;23.316;2023-04-08T11:06:45;15.45;;;11.63;;
10715;SDS011;5409;42.620;23.316;2023-04-08T11:09:12;18.33;;;11.82;;
10715;SDS011;5409;42.620;23.316;2023-04-08T11:11:40;21.63;;;14.73;;
10715;SDS011;5409;42.620;23.316;2023-04-08T11:14:09;15.55;;;12.02;;
10715;SDS011;5409;42.620;23.316;2023-04-08T11:16:36;19.48;;;13.30;;
10715;SDS011;5409;42.620;23.316;2023-04-08T11:19:03;16.52;;;12.18;;
10715;SDS011;5409;42.620;23.316;2023-04-08T11:21:31;16.65;;;12.02;;
10715;SDS011;5409;42.620;23.316;2023-04-08T11:24:00;14.07;;;11.30;;
10715;SDS011;5409;42.620;23.316;2023-04-08T11:26:31;13.88;;;10.63;;
10715;SDS011;5409;42.620;23.316;2023-04-08T11:28:58;14.73;;;10.63;;
10715;SDS011;5409;42.620;23.316;2023-04-08T11:31:27;15.38;;;10.43;;
10715;SDS011;5409;42.620;23.316;2023-04-08T11:33:54;11.23;;;9.45;;
10715;SDS011;5409;42.620;23.316;2023-04-08T11:36:21;11.63;;;9.23;;
10715;SDS011;5409;42.620;23.316;2023-04-08T11:38:48;11.57;;;9.55;;
10715;SDS011;5409;42.620;23.316;2023-04-08T11:41:15;13.07;;;9.95;;
10715;SDS011;5409;42.620;23.316;2023-04-08T11:43:51;13.13;;;8.30;;
10715;SDS011;5409;42.620;23.316;2023-04-08T11:46:19;13.38;;;8.95;;
10715;SDS011;5409;42.620;23.316;2023-04-08T11:48:57;10.30;;;7.13;;
10715;SDS011;5409;42.620;23.316;2023-04-08T11:51:25;7.65;;;6.78;;
10715;SDS011;5409;42.620;23.316;2023-04-08T11:53:52;7.47;;;6.63;;
10715;SDS011;5409;42.620;23.316;2023-04-08T11:56:19;10.00;;;8.02;;
10715;SDS011;5409;42.620;23.316;2023-04-08T11:58:47;9.82;;;8.45;;
10715;SDS011;5409;42.620;23.316;2023-04-08T12:01:14;8.75;;;7.43;;
10715;SDS011;5409;42.620;23.316;2023-04-08T12:03:52;9.32;;;7.00;;
10715;SDS011;5409;42.620;23.316;2023-04-08T12:06:21;10.38;;;7.45;;
10715;SDS011;5409;42.620;23.316;2023-04-08T12:08:47;8.95;;;7.22;;
10715;SDS011;5409;42.620;23.316;2023-04-08T12:11:14;8.75;;;7.80;;
10715;SDS011;5409;42.620;23.316;2023-04-08T12:13:41;9.27;;;7.82;;
10715;SDS011;5409;42.620;23.316;2023-04-08T12:16:08;8.82;;;7.00;;
10715;SDS011;5409;42.620;23.316;2023-04-08T12:18:34;10.38;;;8.40;;
10715;SDS011;5409;42.620;23.316;2023-04-08T12:21:02;10.75;;;8.52;;
10715;SDS011;5409;42.620;23.316;2023-04-08T12:23:30;9.95;;;7.65;;
10715;SDS011;5409;42.620;23.316;2023-04-08T12:25:57;10.07;;;8.13;;
10715;SDS011;5409;42.620;23.316;2023-04-08T12:28:24;9.85;;;7.65;;
10715;SDS011;5409;42.620;23.316;2023-04-08T12:30:50;8.65;;;7.40;;
10715;SDS011;5409;42.620;23.316;2023-04-08T12:33:17;9.05;;;7.38;;
10715;SDS011;5409;42.620;23.316;2023-04-08T12:35:44;8.00;;;7.20;;
10715;SDS011;5409;42.620;23.316;2023-04-08T12:38:10;6.88;;;6.13;;
10715;SDS011;5409;42.620;23.316;2023-04-08T12:40:39;7.68;;;6.88;;
10715;SDS011;5409;42.620;23.316;2023-04-08T12:43:06;7.32;;;6.55;;
10715;SDS011;5409;42.620;23.316;2023-04-08T12:45:32;8.27;;;7.05;;
10715;SDS011;5409;42.620;23.316;2023-04-08T12:47:59;8.13;;;6.90;;
10715;SDS011;5409;42.620;23.316;2023-04-08T12:50:26;6.82;;;6.13;;
10715;SDS011;5409;42.620;23.316;2023-04-08T12:52:53;9.50;;;6.82;;
10715;SDS011;5409;42.620;23.316;2023-04-08T12:55:19;9.45;;;6.78;;
10715;SDS011;5409;42.620;23.316;2023-04-08T12:57:50;7.95;;;6.78;;
10715;SDS011;5409;42.620;23.316;2023-04-08T13:00:17;8.02;;;6.57;;
10715;SDS011;5409;42.620;23.316;2023-04-08T13:02:44;7.85;;;7.00;;
10715;SDS011;5409;42.620;23.316;2023-04-08T13:05:10;8.30;;;7.22;;
10715;SDS011;5409;42.620;23.316;2023-04-08T13:07:37;9.18;;;8.00;;
10715;SDS011;5409;42.620;23.316;2023-04-08T13:10:05;8.80;;;7.80;;
10715;SDS011;5409;42.620;23.316;2023-04-08T13:12:32;8.18;;;7.38;;
10715;SDS011;5409;42.620;23.316;2023-04-08T13:15:00;9.82;;;7.78;;
10715;SDS011;5409;42.620;23.316;2023-04-08T13:17:27;9.48;;;8.13;;
10715;SDS011;5409;42.620;23.316;2023-04-08T13:19:54;9.02;;;7.93;;
10715;SDS011;5409;42.620;23.316;2023-04-08T13:22:21;8.65;;;7.68;;
10715;SDS011;5409;42.620;23.316;2023-04-08T13:24:47;9.85;;;7.95;;
10715;SDS011;5409;42.620;23.316;2023-04-08T13:27:14;10.13;;;7.57;;
10715;SDS011;5409;42.620;23.316;2023-04-08T13:29:41;8.93;;;7.45;;
10715;SDS011;5409;42.620;23.316;2023-04-08T13:32:09;11.05;;;7.88;;
10715;SDS011;5409;42.620;23.316;2023-04-08T13:34:36;7.07;;;6.38;;
10715;SDS011;5409;42.620;23.316;2023-04-08T13:37:02;7.18;;;6.47;;
10715;SDS011;5409;42.620;23.316;2023-04-08T13:39:29;8.95;;;8.02;;
10715;SDS011;5409;42.620;23.316;2023-04-08T13:41:56;8.13;;;7.32;;
10715;SDS011;5409;42.620;23.316;2023-04-08T13:44:22;9.25;;;7.00;;
10715;SDS011;5409;42.620;23.316;2023-04-08T13:46:49;8.50;;;7.18;;
10715;SDS011;5409;42.620;23.316;2023-04-08T13:49:17;9.68;;;8.30;;
10715;SDS011;5409;42.620;23.316;2023-04-08T13:51:44;10.15;;;9.00;;
10715;SDS011;5409;42.620;23.316;2023-04-08T13:54:11;10.75;;;8.50;;
10715;SDS011;5409;42.620;23.316;2023-04-08T13:56:37;8.88;;;7.95;;
10715;SDS011;5409;42.620;23.316;2023-04-08T13:59:04;10.80;;;9.18;;
10715;SDS011;5409;42.620;23.316;2023-04-08T14:01:31;12.30;;;8.75;;
10715;SDS011;5409;42.620;23.316;2023-04-08T14:03:58;10.88;;;8.82;;
10715;SDS011;5409;42.620;23.316;2023-04-08T14:06:26;9.32;;;8.32;;
10715;SDS011;5409;42.620;23.316;2023-04-08T14:08:52;10.18;;;8.73;;
10715;SDS011;5409;42.620;23.316;2023-04-08T14:11:19;11.88;;;8.45;;
10715;SDS011;5409;42.620;23.316;2023-04-08T14:13:46;10.07;;;8.75;;
10715;SDS011;5409;42.620;23.316;2023-04-08T14:16:13;10.52;;;9.43;;
10715;SDS011;5409;42.620;23.316;2023-04-08T14:18:40;9.70;;;8.70;;
10715;SDS011;5409;42.620;23.316;2023-04-08T14:21:07;9.68;;;8.68;;
10715;SDS011;5409;42.620;23.316;2023-04-08T14:23:35;8.90;;;8.00;;
10715;SDS011;5409;42.620;23.316;2023-04-08T14:26:02;11.95;;;8.55;;
10715;SDS011;5409;42.620;23.316;2023-04-08T14:28:29;8.80;;;7.90;;
10715;SDS011;5409;42.620;23.316;2023-04-08T14:30:55;9.43;;;7.90;;
10715;SDS011;5409;42.620;23.316;2023-04-08T14:33:22;8.85;;;7.30;;
10715;SDS011;5409;42.620;23.316;2023-04-08T14:35:49;9.40;;;7.47;;
10715;SDS011;5409;42.620;23.316;2023-04-08T14:38:18;9.35;;;8.45;;
10715;SDS011;5409;42.620;23.316;2023-04-08T14:40:46;9.45;;;7.57;;
10715;SDS011;5409;42.620;23.316;2023-04-08T14:43:13;8.00;;;7.18;;
10715;SDS011;5409;42.620;23.316;2023-04-08T14:45:40;8.43;;;7.63;;
10715;SDS011;5409;42.620;23.316;2023-04-08T14:48:06;9.10;;;6.95;;